Time;durP1;ratioP1;P1;durP2;ratioP2;P2;SDS_P1;SDS_P2;PMS_P1;PMS_P2;Temp;Humidity;BMP_temperature;BMP_pressure;BME280_temperature;BME280_humidity;BME280_pressure;Samples;Min_cycle;Max_cycle;Signal;HPM_P1;HPM_P2
2022/01/27 00:04:37;;;;;;;65.80;21.20;;;0.50;95.30;;;;;;5065797;28;20179;-71
2022/01/27 00:07:03;;;;;;;66.25;20.80;;;0.50;95.00;;;;;;5091915;28;20358;-70
2022/01/27 00:09:48;;;;;;;60.27;18.77;;;0.40;94.70;;;;;;5092382;28;20258;-69
2022/01/27 00:12:18;;;;;;;42.13;18.30;;;0.30;94.70;;;;;;5088174;28;20740;-70
2022/01/27 00:14:47;;;;;;;50.13;18.20;;;0.30;94.80;;;;;;5092872;28;20183;-71
2022/01/27 00:17:15;;;;;;;70.10;19.77;;;0.40;94.90;;;;;;5091438;28;20203;-71
2022/01/27 00:19:42;;;;;;;56.42;19.70;;;0.30;95.00;;;;;;5093331;28;20202;-71
2022/01/27 00:22:08;;;;;;;57.88;20.35;;;0.40;95.10;;;;;;5086407;28;20224;-71
2022/01/27 00:24:34;;;;;;;56.53;19.07;;;0.40;95.10;;;;;;5092561;28;20510;-71
2022/01/27 00:26:59;;;;;;;64.77;23.50;;;0.40;95.00;;;;;;5090698;28;20962;-70
2022/01/27 00:29:26;;;;;;;59.80;20.93;;;0.40;95.10;;;;;;5093209;28;20191;-71
2022/01/27 00:31:51;;;;;;;51.55;19.20;;;0.50;95.10;;;;;;5092285;28;20186;-70
2022/01/27 00:34:17;;;;;;;64.57;19.23;;;0.50;95.10;;;;;;5092790;28;20675;-70
2022/01/27 00:36:43;;;;;;;55.38;19.30;;;0.60;95.00;;;;;;5092296;28;20500;-71
2022/01/27 00:39:09;;;;;;;54.97;18.93;;;0.60;94.60;;;;;;5093932;28;20629;-70
2022/01/27 00:41:35;;;;;;;59.07;18.87;;;0.60;94.40;;;;;;5093129;28;20203;-69
2022/01/27 00:44:02;;;;;;;53.43;19.97;;;0.60;94.40;;;;;;5092929;28;20593;-71
2022/01/27 00:46:31;;;;;;;56.33;20.90;;;0.60;94.50;;;;;;5091607;28;20461;-71
2022/01/27 00:48:57;;;;;;;52.72;18.33;;;0.60;94.60;;;;;;5092762;28;20289;-70
2022/01/27 00:51:26;;;;;;;58.80;19.73;;;0.70;94.50;;;;;;5092956;28;20741;-71
2022/01/27 00:54:06;;;;;;;59.30;20.00;;;0.70;94.40;;;;;;5091919;28;20354;-70
2022/01/27 00:56:50;;;;;;;47.95;17.42;;;0.70;94.30;;;;;;5092243;28;20175;-70
2022/01/27 01:04:45;;;;;;;63.38;21.15;;;0.60;94.10;;;;;;5093026;28;20194;-71
2022/01/27 01:07:12;;;;;;;49.53;18.38;;;0.50;94.40;;;;;;5092107;28;20199;-71
2022/01/27 01:17:47;;;;;;;63.63;20.42;;;0.50;94.80;;;;;;5093395;28;20202;-71
2022/01/27 01:20:39;;;;;;;64.82;20.65;;;0.30;94.70;;;;;;5093213;28;20179;-71
2022/01/27 01:33:56;;;;;;;65.75;20.95;;;0.30;95.50;;;;;;5093197;28;20194;-69
2022/01/27 01:36:45;;;;;;;61.90;20.40;;;0.30;95.40;;;;;;5091832;28;20253;-70
2022/01/27 01:39:12;;;;;;;65.38;21.67;;;0.40;95.30;;;;;;5090460;28;20186;-70
2022/01/27 01:41:38;;;;;;;63.45;19.85;;;0.50;95.20;;;;;;5090189;28;20194;-69
2022/01/27 01:44:05;;;;;;;43.35;18.10;;;0.50;95.00;;;;;;5092690;28;20179;-71
2022/01/27 01:46:31;;;;;;;46.33;18.67;;;0.50;94.80;;;;;;5092286;28;20205;-71
2022/01/27 01:48:57;;;;;;;54.38;18.70;;;0.50;94.70;;;;;;5091138;28;20199;-69
2022/01/27 01:51:28;;;;;;;52.27;18.90;;;0.60;94.50;;;;;;5093321;28;20175;-72
2022/01/27 01:53:55;;;;;;;42.13;17.50;;;0.60;94.10;;;;;;5086288;28;20452;-69
2022/01/27 01:56:21;;;;;;;51.42;17.85;;;0.70;93.90;;;;;;5091105;28;20186;-71
2022/01/27 01:58:47;;;;;;;44.25;18.10;;;0.70;93.70;;;;;;5091302;28;20203;-70
2022/01/27 02:01:13;;;;;;;58.13;19.83;;;0.70;93.30;;;;;;5091709;28;20650;-71
2022/01/27 02:03:39;;;;;;;58.57;17.93;;;0.70;93.20;;;;;;5092974;28;20417;-71
2022/01/27 02:06:06;;;;;;;48.13;18.60;;;0.70;93.30;;;;;;5095543;28;20409;-71
2022/01/27 02:09:22;;;;;;;51.20;19.73;;;0.60;93.20;;;;;;5096196;28;20433;-71
2022/01/27 02:19:31;;;;;;;44.65;18.98;;;0.70;92.90;;;;;;5091241;28;20190;-69
2022/01/27 02:22:03;;;;;;;42.35;17.20;;;0.70;92.90;;;;;;5090887;28;20199;-69
2022/01/27 02:24:32;;;;;;;55.03;18.58;;;0.70;93.00;;;;;;5089730;28;20211;-70
2022/01/27 02:27:00;;;;;;;48.67;17.92;;;0.80;93.00;;;;;;5088763;28;20226;-70
2022/01/27 02:29:26;;;;;;;50.72;18.35;;;0.80;92.90;;;;;;5090786;28;20183;-68
2022/01/27 02:31:54;;;;;;;51.58;20.30;;;0.90;92.70;;;;;;5089975;28;20179;-70
2022/01/27 02:34:21;;;;;;;44.83;17.95;;;0.90;92.50;;;;;;5091504;28;20179;-69
2022/01/27 02:36:46;;;;;;;50.30;18.55;;;0.90;92.50;;;;;;5091082;28;20290;-69
2022/01/27 02:39:14;;;;;;;54.43;18.30;;;0.90;92.50;;;;;;5089523;28;20259;-69
2022/01/27 02:41:48;;;;;;;48.85;19.88;;;0.80;92.60;;;;;;5090211;28;20199;-70
2022/01/27 02:44:33;;;;;;;47.60;18.15;;;0.80;92.80;;;;;;5091096;28;20642;-70
2022/01/27 02:46:59;;;;;;;39.92;17.15;;;0.80;92.80;;;;;;5089941;28;20778;-68
2022/01/27 02:49:25;;;;;;;54.20;18.92;;;0.80;92.80;;;;;;5090784;28;20563;-69
2022/01/27 02:51:52;;;;;;;49.95;19.52;;;0.80;93.00;;;;;;5088814;28;20179;-70
2022/01/27 02:54:18;;;;;;;50.65;19.23;;;0.90;92.70;;;;;;5090743;28;20592;-70
2022/01/27 02:56:46;;;;;;;44.60;17.75;;;0.90;92.40;;;;;;5089112;28;20282;-70
2022/01/27 02:59:14;;;;;;;43.15;17.88;;;0.90;92.40;;;;;;5089749;28;20183;-70
2022/01/27 03:01:40;;;;;;;48.45;17.67;;;0.80;92.30;;;;;;5088824;28;20221;-69
2022/01/27 03:04:06;;;;;;;42.83;18.17;;;0.80;92.30;;;;;;5090678;28;20205;-71
2022/01/27 03:06:32;;;;;;;49.93;18.40;;;0.80;92.30;;;;;;5089168;28;20183;-70
2022/01/27 03:08:58;;;;;;;46.30;16.47;;;0.80;92.40;;;;;;5093785;28;20199;-69
2022/01/27 03:11:47;;;;;;;43.67;17.53;;;0.80;92.30;;;;;;5095285;28;20417;-70
2022/01/27 03:14:16;;;;;;;49.53;17.98;;;0.70;92.30;;;;;;5094295;28;20228;-68
2022/01/27 03:16:42;;;;;;;42.75;16.85;;;0.60;92.50;;;;;;5092660;28;20693;-70
2022/01/27 03:19:08;;;;;;;46.95;18.80;;;0.60;92.60;;;;;;5092138;28;20218;-69
2022/01/27 03:21:35;;;;;;;35.30;15.57;;;0.70;92.70;;;;;;5092655;28;20230;-70
2022/01/27 03:24:01;;;;;;;48.05;18.70;;;0.60;92.00;;;;;;5092552;28;20418;-70
2022/01/27 03:26:27;;;;;;;47.90;15.97;;;0.50;91.90;;;;;;5084749;28;20187;-70
2022/01/27 03:28:53;;;;;;;38.83;16.50;;;0.50;92.10;;;;;;5090355;28;20458;-68
2022/01/27 03:31:19;;;;;;;45.38;17.38;;;0.40;92.00;;;;;;5091089;28;20179;-70
2022/01/27 03:33:45;;;;;;;37.80;15.00;;;0.40;92.10;;;;;;5091122;28;20190;-70
2022/01/27 03:36:11;;;;;;;42.17;16.50;;;0.30;92.00;;;;;;5090513;28;20217;-70
2022/01/27 03:38:37;;;;;;;50.58;18.70;;;0.40;92.20;;;;;;5090166;28;20449;-71
2022/01/27 03:41:08;;;;;;;47.93;16.13;;;0.50;92.30;;;;;;5090885;28;20184;-69
2022/01/27 03:43:35;;;;;;;51.58;16.55;;;0.40;91.70;;;;;;5091209;28;20302;-71
2022/01/27 03:46:01;;;;;;;46.92;17.27;;;0.30;91.60;;;;;;5094514;28;20195;-71
2022/01/27 03:48:27;;;;;;;39.00;16.37;;;0.20;91.80;;;;;;5094348;28;20226;-71
2022/01/27 03:50:53;;;;;;;40.27;17.40;;;0.20;91.90;;;;;;5094743;28;20508;-70
2022/01/27 03:53:19;;;;;;;43.10;16.30;;;0.30;92.10;;;;;;5094885;28;20439;-68
2022/01/27 03:55:45;;;;;;;46.25;16.05;;;0.30;92.20;;;;;;5094380;28;20198;-68
2022/01/27 03:58:10;;;;;;;46.23;17.50;;;0.30;92.00;;;;;;5094622;28;20207;-72
2022/01/27 04:00:37;;;;;;;45.97;16.77;;;0.30;92.10;;;;;;5094377;28;20191;-71
2022/01/27 04:03:07;;;;;;;40.35;16.55;;;0.40;92.00;;;;;;5094033;28;20510;-69
2022/01/27 04:05:39;;;;;;;37.20;15.90;;;0.40;91.30;;;;;;5096475;28;20183;-71
2022/01/27 04:08:07;;;;;;;37.70;15.88;;;0.40;91.10;;;;;;5103521;28;20281;-70
2022/01/27 04:10:34;;;;;;;41.67;15.07;;;0.40;91.10;;;;;;5102596;28;20171;-70
2022/01/27 04:13:00;;;;;;;38.00;15.77;;;0.40;91.00;;;;;;5095059;28;20175;-71
2022/01/27 04:15:25;;;;;;;36.03;15.93;;;0.40;91.00;;;;;;5089983;28;20224;-70
2022/01/27 04:17:52;;;;;;;41.13;17.30;;;0.30;91.10;;;;;;5093510;28;20195;-69
2022/01/27 04:20:18;;;;;;;44.65;16.15;;;0.30;91.10;;;;;;5094209;28;20179;-69
2022/01/27 04:22:43;;;;;;;44.83;17.47;;;0.40;91.20;;;;;;5094018;28;20206;-71
2022/01/27 04:25:11;;;;;;;44.70;17.10;;;0.40;91.10;;;;;;5094678;28;20449;-71
2022/01/27 04:27:40;;;;;;;48.78;16.98;;;0.50;91.10;;;;;;5093797;28;20290;-71
2022/01/27 04:30:11;;;;;;;37.33;16.80;;;0.50;91.10;;;;;;5094342;28;20243;-69
2022/01/27 04:32:44;;;;;;;40.13;16.58;;;0.50;91.10;;;;;;5092356;28;20281;-71
2022/01/27 04:35:14;;;;;;;42.60;17.25;;;0.60;91.20;;;;;;5087871;28;20171;-72
2022/01/27 04:37:51;;;;;;;48.90;18.65;;;0.70;91.10;;;;;;5093951;28;20210;-70
2022/01/27 04:40:17;;;;;;;38.67;16.45;;;0.80;90.70;;;;;;5093032;28;20198;-71
2022/01/27 04:45:21;;;;;;;44.00;17.30;;;0.80;90.40;;;;;;5093430;28;20201;-70
2022/01/27 04:47:51;;;;;;;43.13;19.50;;;0.80;90.30;;;;;;5093283;28;20234;-71
2022/01/27 04:50:17;;;;;;;46.72;16.58;;;0.80;90.10;;;;;;5093217;28;20551;-70
2022/01/27 04:52:44;;;;;;;49.83;17.63;;;0.70;89.90;;;;;;5093088;28;20183;-70
2022/01/27 04:55:12;;;;;;;42.08;15.10;;;0.50;90.20;;;;;;5092760;28;20237;-71
2022/01/27 04:57:40;;;;;;;42.75;16.58;;;0.50;90.50;;;;;;5091822;28;20207;-69
2022/01/27 05:00:07;;;;;;;45.60;17.42;;;0.40;90.70;;;;;;5092453;28;20606;-71
2022/01/27 05:05:02;;;;;;;49.55;17.02;;;0.30;91.20;;;;;;5093128;28;20187;-70
2022/01/27 05:07:28;;;;;;;47.13;17.55;;;0.30;91.20;;;;;;5091928;28;20214;-70
2022/01/27 05:09:59;;;;;;;40.03;16.40;;;0.40;91.30;;;;;;5093081;28;20661;-70
2022/01/27 05:14:59;;;;;;;47.80;17.77;;;0.40;91.20;;;;;;5092603;28;20217;-69
2022/01/27 05:17:24;;;;;;;49.67;18.30;;;0.40;91.20;;;;;;5092577;28;20581;-71
2022/01/27 05:19:51;;;;;;;46.03;16.97;;;0.40;91.30;;;;;;5096517;28;20175;-71
2022/01/27 05:22:17;;;;;;;51.75;19.50;;;0.50;91.40;;;;;;5092727;28;20279;-70
2022/01/27 05:24:43;;;;;;;48.38;18.80;;;0.40;91.30;;;;;;5092869;28;20188;-70
2022/01/27 05:27:09;;;;;;;43.63;17.10;;;0.30;91.30;;;;;;5091410;28;20229;-72
2022/01/27 05:29:35;;;;;;;44.80;17.75;;;0.40;91.40;;;;;;5095394;28;20445;-70
2022/01/27 05:32:01;;;;;;;47.93;18.93;;;0.50;91.40;;;;;;5097227;28;20236;-72
2022/01/27 05:34:26;;;;;;;49.33;18.70;;;0.50;91.30;;;;;;5093037;28;20650;-70
2022/01/27 05:36:52;;;;;;;53.87;19.67;;;0.40;91.20;;;;;;5093661;28;20258;-71
2022/01/27 05:39:18;;;;;;;58.23;20.90;;;0.40;91.20;;;;;;5093033;28;20179;-70
2022/01/27 05:41:43;;;;;;;58.23;20.47;;;0.50;91.20;;;;;;5093336;28;20260;-71
2022/01/27 05:44:09;;;;;;;54.07;20.90;;;0.40;91.00;;;;;;5093199;28;20167;-72
2022/01/27 05:46:35;;;;;;;56.27;20.77;;;0.40;91.00;;;;;;5099333;28;20493;-70
2022/01/27 05:49:02;;;;;;;62.30;22.33;;;0.50;91.10;;;;;;5092806;28;20437;-70
2022/01/27 05:51:27;;;;;;;58.95;22.40;;;0.40;91.00;;;;;;5092578;28;20452;-71
2022/01/27 05:53:53;;;;;;;60.37;22.50;;;0.40;91.00;;;;;;5092390;28;20218;-70
2022/01/27 05:56:19;;;;;;;55.43;21.43;;;0.30;91.10;;;;;;5091647;28;20204;-69
2022/01/27 05:58:45;;;;;;;54.67;20.20;;;0.40;91.20;;;;;;5091928;28;20280;-71
2022/01/27 06:01:11;;;;;;;53.70;20.23;;;0.50;91.30;;;;;;5092945;28;20270;-71
2022/01/27 06:03:37;;;;;;;55.15;22.17;;;0.50;90.90;;;;;;5093705;28;20992;-71
2022/01/27 06:06:03;;;;;;;54.33;20.37;;;0.40;90.80;;;;;;5092972;28;20187;-71
2022/01/27 06:08:30;;;;;;;63.43;23.73;;;0.50;90.70;;;;;;5092081;28;20464;-71
2022/01/27 06:10:57;;;;;;;52.28;20.92;;;0.40;90.60;;;;;;5093477;28;20551;-72
2022/01/27 06:13:23;;;;;;;52.75;21.73;;;0.40;90.90;;;;;;5095165;28;20179;-71
2022/01/27 06:15:49;;;;;;;60.60;20.90;;;0.40;90.90;;;;;;5093928;28;20616;-71
2022/01/27 06:18:15;;;;;;;57.85;19.95;;;0.50;90.80;;;;;;5092629;28;20274;-69
2022/01/27 06:20:43;;;;;;;43.57;18.97;;;0.40;90.80;;;;;;5090958;28;20183;-69
2022/01/27 06:23:09;;;;;;;54.70;19.50;;;0.30;90.70;;;;;;5091551;28;20711;-69
2022/01/27 06:25:35;;;;;;;52.37;20.00;;;0.40;90.70;;;;;;5085723;28;20207;-72
2022/01/27 06:28:01;;;;;;;55.07;19.57;;;0.40;90.40;;;;;;5092330;28;20433;-69
2022/01/27 06:30:27;;;;;;;51.07;20.30;;;0.40;90.20;;;;;;5093446;28;20605;-70
2022/01/27 06:32:52;;;;;;;43.95;19.40;;;0.30;90.10;;;;;;5090718;28;20179;-69
2022/01/27 06:35:18;;;;;;;55.03;19.03;;;0.30;90.40;;;;;;5088237;28;20668;-69
2022/01/27 06:37:47;;;;;;;57.50;21.23;;;0.30;90.80;;;;;;5090024;28;20214;-71
2022/01/27 06:40:14;;;;;;;57.25;21.85;;;0.40;90.90;;;;;;5090540;28;20536;-70
2022/01/27 06:42:41;;;;;;;51.97;19.55;;;0.50;90.70;;;;;;5089901;28;20703;-70
2022/01/27 06:45:08;;;;;;;49.65;19.58;;;0.50;90.60;;;;;;5090302;28;20273;-70
2022/01/27 06:47:33;;;;;;;52.25;19.33;;;0.50;90.20;;;;;;5090261;28;20309;-69
2022/01/27 06:50:00;;;;;;;55.77;20.17;;;0.40;90.10;;;;;;5090687;28;20611;-71
2022/01/27 06:52:27;;;;;;;49.42;18.50;;;0.50;90.20;;;;;;5090913;28;20915;-70
2022/01/27 06:54:55;;;;;;;49.03;20.23;;;0.50;90.20;;;;;;5082321;28;20285;-70
2022/01/27 06:57:22;;;;;;;43.40;19.13;;;0.30;90.10;;;;;;5090550;28;20206;-68
2022/01/27 06:59:48;;;;;;;39.50;16.83;;;0.20;90.30;;;;;;5095941;28;20198;-72
2022/01/27 07:02:14;;;;;;;49.78;17.98;;;0.10;90.70;;;;;;5096780;28;20195;-71
2022/01/27 07:04:40;;;;;;;38.60;16.90;;;0.10;90.70;;;;;;5101330;28;20183;-70
2022/01/27 07:07:05;;;;;;;45.47;16.83;;;0.10;90.70;;;;;;5101806;28;20195;-70
2022/01/27 07:09:31;;;;;;;44.53;16.73;;;0.10;90.50;;;;;;5103366;28;20262;-70
2022/01/27 07:11:57;;;;;;;47.90;17.60;;;0.00;90.40;;;;;;5101235;28;20274;-70
2022/01/27 07:14:23;;;;;;;40.67;16.23;;;0.00;90.20;;;;;;5098354;28;20417;-70
2022/01/27 07:16:49;;;;;;;36.65;16.55;;;0.00;90.50;;;;;;5089812;28;20505;-69
2022/01/27 07:19:16;;;;;;;39.97;15.60;;;0.00;90.70;;;;;;5093643;28;20179;-68
2022/01/27 07:21:42;;;;;;;47.88;17.25;;;0.20;91.00;;;;;;5092623;28;20210;-69
2022/01/27 07:24:07;;;;;;;37.50;15.40;;;0.20;90.50;;;;;;5091867;28;20179;-69
2022/01/27 07:26:33;;;;;;;35.83;15.50;;;0.10;90.00;;;;;;5085224;28;20559;-69
2022/01/27 07:28:59;;;;;;;38.60;15.48;;;0.00;89.90;;;;;;5093126;28;20287;-70
2022/01/27 07:31:25;;;;;;;38.40;16.70;;;0.00;90.00;;;;;;5092505;28;20190;-71
2022/01/27 07:33:52;;;;;;;40.25;15.80;;;0.10;89.90;;;;;;5093338;28;20417;-71
2022/01/27 07:36:19;;;;;;;44.50;17.67;;;0.00;90.00;;;;;;5092599;28;20182;-69
2022/01/27 07:38:47;;;;;;;49.10;16.27;;;0.00;90.30;;;;;;5093028;28;20211;-70
2022/01/27 07:41:13;;;;;;;46.08;17.10;;;0.00;90.30;;;;;;5092845;28;20187;-71
2022/01/27 07:43:42;;;;;;;53.65;18.98;;;0.10;90.50;;;;;;5093169;28;20182;-71
2022/01/27 07:46:11;;;;;;;41.28;16.35;;;0.20;90.20;;;;;;5091880;28;20206;-70
2022/01/27 07:48:40;;;;;;;43.58;17.52;;;0.10;90.20;;;;;;5091850;28;20299;-71
2022/01/27 07:51:07;;;;;;;46.47;18.00;;;0.10;90.00;;;;;;5092705;28;20179;-70
2022/01/27 07:53:36;;;;;;;47.65;17.02;;;0.00;90.20;;;;;;5092992;28;20217;-70
2022/01/27 07:56:03;;;;;;;47.10;18.20;;;-0.10;90.50;;;;;;5090991;28;20244;-70
2022/01/27 07:58:31;;;;;;;49.25;18.52;;;-0.10;90.80;;;;;;5092326;28;20199;-70
2022/01/27 08:00:57;;;;;;;62.00;20.65;;;-0.20;91.00;;;;;;5084560;28;20179;-70
2022/01/27 08:03:23;;;;;;;44.95;17.48;;;-0.20;91.50;;;;;;5092851;28;20207;-70
2022/01/27 08:05:49;;;;;;;44.05;16.58;;;-0.30;91.60;;;;;;5092024;28;20181;-69
2022/01/27 08:08:15;;;;;;;43.00;17.97;;;-0.30;91.60;;;;;;5092970;28;20634;-70
2022/01/27 08:10:41;;;;;;;48.03;17.50;;;-0.40;91.80;;;;;;5092374;28;20448;-70
2022/01/27 08:13:07;;;;;;;48.87;17.57;;;-0.40;92.00;;;;;;5092747;28;20294;-70
2022/01/27 08:15:33;;;;;;;45.20;17.75;;;-0.40;92.00;;;;;;5094123;28;20610;-70
2022/01/27 08:18:00;;;;;;;42.20;17.52;;;-0.30;91.80;;;;;;5095539;28;20268;-72
2022/01/27 08:20:26;;;;;;;44.75;16.85;;;-0.30;91.60;;;;;;5092284;28;20175;-70
2022/01/27 08:22:53;;;;;;;55.67;19.15;;;-0.20;91.40;;;;;;5091110;28;20203;-70
2022/01/27 08:25:21;;;;;;;49.67;18.92;;;-0.20;91.00;;;;;;5090283;28;20247;-71
2022/01/27 08:27:49;;;;;;;50.40;18.35;;;-0.20;90.90;;;;;;5091023;28;20210;-69
2022/01/27 08:30:17;;;;;;;59.50;19.45;;;-0.20;90.70;;;;;;5092219;28;20582;-71
2022/01/27 08:32:57;;;;;;;49.92;18.92;;;-0.20;90.80;;;;;;5092610;28;20656;-70
2022/01/27 08:35:24;;;;;;;54.92;19.13;;;-0.30;90.90;;;;;;5091671;28;20179;-70
2022/01/27 08:37:50;;;;;;;57.25;19.98;;;-0.30;91.00;;;;;;5090560;28;20302;-70
2022/01/27 08:40:17;;;;;;;69.95;20.33;;;-0.30;91.20;;;;;;5091191;28;20246;-70
2022/01/27 08:42:43;;;;;;;54.03;17.30;;;-0.40;91.30;;;;;;5092853;28;20218;-70
2022/01/27 08:45:15;;;;;;;54.80;18.48;;;-0.40;91.50;;;;;;5094126;28;20795;-70
2022/01/27 08:47:42;;;;;;;65.95;22.10;;;-0.40;91.60;;;;;;5095515;28;20748;-71
2022/01/27 08:50:10;;;;;;;49.00;17.58;;;-0.30;91.70;;;;;;5094565;28;20292;-70
2022/01/27 08:52:36;;;;;;;57.60;17.38;;;-0.30;91.30;;;;;;5093253;28;20313;-71
2022/01/27 08:55:04;;;;;;;59.28;19.30;;;-0.40;91.30;;;;;;5092814;28;20187;-69
2022/01/27 08:57:30;;;;;;;49.85;17.77;;;-0.30;91.50;;;;;;5092593;28;20286;-70
2022/01/27 08:59:56;;;;;;;53.07;17.63;;;-0.30;91.30;;;;;;5092950;28;20262;-70
2022/01/27 09:02:22;;;;;;;50.67;17.63;;;-0.30;91.00;;;;;;5091555;28;20668;-69
2022/01/27 09:04:48;;;;;;;55.13;18.00;;;-0.30;90.90;;;;;;5091937;28;20183;-69
2022/01/27 09:07:15;;;;;;;51.97;17.02;;;-0.30;90.70;;;;;;5090737;28;20669;-70
2022/01/27 09:09:44;;;;;;;46.28;17.20;;;-0.40;90.60;;;;;;5091657;28;20179;-69
2022/01/27 09:12:12;;;;;;;52.42;17.67;;;-0.40;90.80;;;;;;5091091;28;20186;-70
2022/01/27 09:14:41;;;;;;;51.83;17.63;;;-0.40;90.60;;;;;;5091585;28;20206;-70
2022/01/27 09:17:08;;;;;;;42.85;16.75;;;-0.30;90.70;;;;;;5091418;28;20321;-70
2022/01/27 09:19:38;;;;;;;44.03;14.93;;;-0.20;90.70;;;;;;5091687;28;20502;-71
2022/01/27 09:22:08;;;;;;;39.47;16.98;;;-0.20;90.40;;;;;;5091738;28;20190;-70
2022/01/27 09:24:40;;;;;;;51.10;17.52;;;-0.10;90.20;;;;;;5101737;28;20183;-70
2022/01/27 09:27:06;;;;;;;44.40;15.45;;;-0.10;89.90;;;;;;5101956;28;20195;-71
2022/01/27 09:29:32;;;;;;;42.70;15.23;;;0.00;89.90;;;;;;5101070;28;20224;-71
2022/01/27 09:31:58;;;;;;;36.50;13.60;;;0.10;89.70;;;;;;5094013;28;20270;-70
2022/01/27 09:34:24;;;;;;;32.08;11.98;;;0.20;89.30;;;;;;5090674;28;20422;-69
2022/01/27 09:36:50;;;;;;;26.25;10.45;;;0.30;89.20;;;;;;5091178;28;20256;-70
2022/01/27 09:39:17;;;;;;;34.13;11.87;;;0.40;88.90;;;;;;5091387;28;20459;-71
2022/01/27 09:41:43;;;;;;;31.63;11.55;;;0.50;89.30;;;;;;5088847;28;20202;-70
2022/01/27 09:44:12;;;;;;;31.80;10.30;;;0.60;89.20;;;;;;5091799;28;20178;-70
2022/01/27 09:46:41;;;;;;;24.33;10.10;;;0.70;88.90;;;;;;5090879;28;20187;-70
2022/01/27 09:49:14;;;;;;;25.05;9.80;;;0.80;88.70;;;;;;5090535;28;20187;-70
2022/01/27 09:51:44;;;;;;;33.55;11.80;;;0.90;88.40;;;;;;5090661;28;20179;-69
2022/01/27 09:54:10;;;;;;;37.13;12.13;;;1.00;88.00;;;;;;5090929;28;20190;-70
2022/01/27 09:56:40;;;;;;;25.85;10.23;;;1.00;87.70;;;;;;5090568;28;20218;-70
2022/01/27 09:59:07;;;;;;;25.00;9.98;;;1.00;87.40;;;;;;5091156;28;20246;-71
2022/01/27 10:01:33;;;;;;;26.38;10.30;;;1.10;87.60;;;;;;5090599;28;20189;-70
2022/01/27 10:04:06;;;;;;;27.13;10.27;;;1.10;87.60;;;;;;5090406;28;20699;-69
2022/01/27 10:06:34;;;;;;;36.35;12.60;;;1.10;87.40;;;;;;5089704;28;20182;-70
2022/01/27 10:09:26;;;;;;;25.23;10.65;;;1.10;87.70;;;;;;5089256;28;20195;-70
2022/01/27 10:11:52;;;;;;;28.58;10.65;;;1.20;87.70;;;;;;5090174;28;20545;-70
2022/01/27 10:14:22;;;;;;;19.85;10.23;;;1.30;87.70;;;;;;5091351;28;20238;-69
2022/01/27 10:16:51;;;;;;;23.42;11.35;;;1.40;87.80;;;;;;5089741;28;20211;-69
2022/01/27 10:19:17;;;;;;;27.63;12.13;;;1.40;87.60;;;;;;5090380;28;20248;-71
2022/01/27 10:21:43;;;;;;;28.55;12.45;;;1.50;87.70;;;;;;5090160;28;20199;-70
2022/01/27 10:24:23;;;;;;;29.23;10.40;;;1.50;87.70;;;;;;5089205;28;20175;-70
2022/01/27 10:27:20;;;;;;;34.20;11.82;;;1.50;87.40;;;;;;5083734;28;20201;-69
2022/01/27 10:32:38;;;;;;;34.95;12.93;;;1.50;87.40;;;;;;5092150;28;20187;-70
2022/01/27 10:35:04;;;;;;;30.88;11.70;;;1.50;87.10;;;;;;5090195;28;20315;-70
2022/01/27 10:37:55;;;;;;;27.50;12.07;;;1.50;87.60;;;;;;5090655;28;20259;-72
2022/01/27 10:40:35;;;;;;;24.25;10.77;;;1.70;87.70;;;;;;5091215;28;20853;-69
2022/01/27 10:43:08;;;;;;;31.10;11.00;;;1.70;87.40;;;;;;5090590;28;20229;-70
2022/01/27 10:45:38;;;;;;;28.65;10.93;;;1.70;87.40;;;;;;5090513;28;20195;-70
2022/01/27 10:48:23;;;;;;;26.83;10.32;;;1.80;87.40;;;;;;5091573;28;20477;-71
2022/01/27 10:50:58;;;;;;;25.20;9.57;;;1.80;87.40;;;;;;5088929;28;20278;-70
2022/01/27 10:53:43;;;;;;;23.55;10.15;;;1.90;87.30;;;;;;5098307;28;20179;-70
2022/01/27 10:56:15;;;;;;;21.70;8.90;;;1.90;87.10;;;;;;5106724;28;20653;-69
2022/01/27 10:58:42;;;;;;;30.77;10.55;;;2.00;87.10;;;;;;5094741;28;20213;-71
2022/01/27 11:01:08;;;;;;;30.90;11.80;;;2.00;86.90;;;;;;5088651;28;20183;-69
2022/01/27 11:03:35;;;;;;;27.63;11.50;;;2.10;86.90;;;;;;5089524;28;20567;-72
2022/01/27 11:06:10;;;;;;;24.70;10.23;;;2.20;87.00;;;;;;5089474;28;20171;-72
2022/01/27 11:08:39;;;;;;;25.17;9.75;;;2.20;87.00;;;;;;5089316;28;20207;-69
2022/01/27 11:11:05;;;;;;;26.63;9.32;;;2.20;87.30;;;;;;5090452;28;20220;-71
2022/01/27 11:13:33;;;;;;;21.97;9.40;;;2.30;87.30;;;;;;5099895;28;20180;-73
2022/01/27 11:16:00;;;;;;;24.13;8.90;;;2.30;87.60;;;;;;5104020;28;20470;-71
2022/01/27 11:18:28;;;;;;;19.77;7.93;;;2.40;87.60;;;;;;5104110;28;20195;-73
2022/01/27 11:21:01;;;;;;;22.60;9.00;;;2.50;87.40;;;;;;5091765;28;20179;-71
2022/01/27 11:24:03;;;;;;;21.55;8.50;;;2.40;87.40;;;;;;5088348;28;20245;-71
2022/01/27 11:26:29;;;;;;;19.08;9.73;;;2.50;87.00;;;;;;5083784;28;20175;-71
2022/01/27 11:28:57;;;;;;;26.92;9.50;;;2.50;87.00;;;;;;5091351;28;20207;-71
2022/01/27 11:31:46;;;;;;;20.98;9.27;;;2.50;86.90;;;;;;5092023;28;20183;-70
2022/01/27 11:34:12;;;;;;;23.80;9.05;;;2.50;86.90;;;;;;5076337;28;20190;-71
2022/01/27 11:36:58;;;;;;;24.27;9.98;;;2.50;86.80;;;;;;5089849;28;20190;-71
2022/01/27 11:39:50;;;;;;;25.90;11.15;;;2.60;86.90;;;;;;5089937;28;20653;-70
2022/01/27 11:42:34;;;;;;;25.65;8.27;;;2.60;86.60;;;;;;5084898;28;20211;-71
2022/01/27 11:45:19;;;;;;;21.73;9.45;;;2.70;86.80;;;;;;5081868;28;20260;-71
2022/01/27 11:47:58;;;;;;;21.67;9.60;;;2.70;86.20;;;;;;5089735;28;20276;-70
2022/01/27 11:50:34;;;;;;;25.55;10.55;;;2.70;85.90;;;;;;5090073;28;20607;-70
2022/01/27 11:53:07;;;;;;;31.95;11.27;;;2.70;85.50;;;;;;5082569;28;20186;-69
2022/01/27 11:55:35;;;;;;;18.48;9.30;;;2.70;84.90;;;;;;5089333;28;20175;-71
2022/01/27 11:58:11;;;;;;;28.40;11.63;;;2.70;84.70;;;;;;5088207;28;20195;-70
2022/01/27 12:00:38;;;;;;;24.25;9.63;;;2.70;84.60;;;;;;5088982;28;20190;-70
2022/01/27 12:03:05;;;;;;;26.52;10.02;;;2.70;84.10;;;;;;5089419;28;20279;-70
2022/01/27 12:05:39;;;;;;;23.15;10.43;;;2.70;84.30;;;;;;5092161;28;20182;-71
2022/01/27 12:08:17;;;;;;;26.17;10.27;;;2.70;84.40;;;;;;5093117;28;20201;-70
2022/01/27 12:10:59;;;;;;;23.92;10.50;;;2.80;84.30;;;;;;5091804;28;20261;-70
2022/01/27 12:18:59;;;;;;;20.48;9.82;;;2.90;84.30;;;;;;5094953;28;20297;-70
2022/01/27 12:21:29;;;;;;;24.33;10.60;;;2.90;83.80;;;;;;5092688;28;20183;-70
2022/01/27 12:24:14;;;;;;;28.05;11.10;;;2.90;83.70;;;;;;5092611;28;20206;-71
2022/01/27 12:26:46;;;;;;;24.55;9.98;;;3.00;83.60;;;;;;5090635;28;20684;-70
2022/01/27 12:29:31;;;;;;;26.60;12.25;;;3.10;83.60;;;;;;5093428;28;20199;-70
2022/01/27 12:31:59;;;;;;;27.92;11.82;;;3.20;83.10;;;;;;5084954;28;20175;-71
2022/01/27 12:34:26;;;;;;;25.23;10.80;;;3.20;82.50;;;;;;5092307;28;20184;-70
2022/01/27 12:37:09;;;;;;;26.40;10.65;;;3.20;82.10;;;;;;5092506;28;20596;-71
2022/01/27 12:39:41;;;;;;;22.15;10.38;;;3.20;82.40;;;;;;5092414;28;20672;-70
2022/01/27 12:42:10;;;;;;;25.25;10.40;;;3.20;82.10;;;;;;5092706;28;20294;-70
2022/01/27 12:44:37;;;;;;;29.45;12.05;;;3.20;81.90;;;;;;5091805;28;20175;-69
2022/01/27 12:47:03;;;;;;;21.27;9.95;;;3.20;81.80;;;;;;5092338;28;20236;-69
2022/01/27 12:49:50;;;;;;;26.75;11.15;;;3.30;81.70;;;;;;5093372;28;20262;-71
2022/01/27 12:52:19;;;;;;;31.30;12.02;;;3.30;81.20;;;;;;5093059;28;20179;-70
2022/01/27 12:54:51;;;;;;;26.05;10.77;;;3.30;81.20;;;;;;5093271;28;20187;-69
2022/01/27 12:57:26;;;;;;;24.17;11.32;;;3.40;81.40;;;;;;5091131;28;20203;-71
2022/01/27 12:59:54;;;;;;;27.30;12.45;;;3.40;81.10;;;;;;5090997;28;20185;-71
2022/01/27 13:02:21;;;;;;;27.67;11.88;;;3.40;81.10;;;;;;5091423;28;20708;-70
2022/01/27 13:04:49;;;;;;;24.88;10.45;;;3.40;81.10;;;;;;5091492;28;20195;-71
2022/01/27 13:07:15;;;;;;;27.40;11.17;;;3.50;81.10;;;;;;5092404;28;20557;-69
2022/01/27 13:09:43;;;;;;;24.23;10.93;;;3.50;80.90;;;;;;5092524;28;20579;-70
2022/01/27 13:12:20;;;;;;;30.52;12.68;;;3.60;81.10;;;;;;5092117;28;20198;-70
2022/01/27 13:14:51;;;;;;;26.25;10.90;;;3.60;80.50;;;;;;5092035;28;20189;-71
2022/01/27 13:17:31;;;;;;;26.88;11.50;;;3.60;80.90;;;;;;5102219;28;20203;-71
2022/01/27 13:20:28;;;;;;;42.95;12.45;;;3.60;80.50;;;;;;5108458;28;20174;-70
2022/01/27 13:23:06;;;;;;;26.30;11.23;;;3.60;80.30;;;;;;5102813;28;20206;-70
2022/01/27 13:25:54;;;;;;;24.92;11.88;;;3.70;80.50;;;;;;5083044;28;20821;-71
2022/01/27 13:28:24;;;;;;;26.85;11.50;;;3.80;80.50;;;;;;5100470;28;20224;-71
2022/01/27 13:30:54;;;;;;;24.70;11.17;;;3.80;80.20;;;;;;5107365;28;20183;-70
2022/01/27 13:33:22;;;;;;;25.03;11.77;;;3.90;80.00;;;;;;5105621;28;20435;-70
2022/01/27 13:35:50;;;;;;;29.60;12.50;;;3.90;79.90;;;;;;5106619;28;20518;-71
2022/01/27 13:38:21;;;;;;;28.08;12.15;;;3.90;79.60;;;;;;5103704;28;20464;-70